createdAt,value
2022-11-25T00:00:21.153Z,94021.00
2022-11-25T00:04:23.025Z,94018.00
2022-11-25T00:14:56.418Z,94022.00
2022-11-25T00:19:24.637Z,94023.00
2022-11-25T00:23:33.514Z,94026.00
2022-11-25T00:27:37.681Z,94018.00
2022-11-25T00:31:58.974Z,94024.00
2022-11-25T00:36:33.775Z,94019.00
2022-11-25T00:40:35.595Z,94025.00
2022-11-25T00:44:38.735Z,94024.00
2022-11-25T00:48:41.372Z,94021.00
2022-11-25T00:52:43.259Z,94029.00
2022-11-25T00:56:45.127Z,94032.00
2022-11-25T01:00:47.424Z,94026.00
2022-11-25T01:04:49.682Z,94042.00
2022-11-25T01:08:53.304Z,94047.00
2022-11-25T01:13:02.731Z,94041.00
2022-11-25T01:17:33.628Z,94042.00
2022-11-25T01:21:50.258Z,94045.00
2022-11-25T01:25:52.275Z,94035.00
2022-11-25T01:29:54.135Z,94045.00
2022-11-25T01:33:59.482Z,94044.00
2022-11-25T01:38:04.527Z,94038.00
2022-11-25T01:42:06.627Z,94038.00
2022-11-25T01:46:43.236Z,94045.00
2022-11-25T01:50:50.280Z,94051.00
2022-11-25T01:55:10.643Z,94052.00
2022-11-25T01:59:40.557Z,94056.00
2022-11-25T02:03:46.857Z,94050.00
2022-11-25T02:08:14.649Z,94047.00
2022-11-25T02:12:18.746Z,94037.00
2022-11-25T02:16:47.520Z,94039.00
2022-11-25T02:20:49.373Z,94050.00
2022-11-25T02:24:58.004Z,94056.00
2022-11-25T02:29:17.480Z,94046.00
2022-11-25T02:33:20.669Z,94051.00
2022-11-25T02:37:24.692Z,94046.00
2022-11-25T02:41:57.027Z,94057.00
2022-11-25T02:46:22.697Z,94054.00
2022-11-25T02:50:50.611Z,94053.00
2022-11-25T02:55:10.393Z,94054.00
2022-11-25T03:00:02.326Z,94054.00
2022-11-25T03:04:30.497Z,94057.00
2022-11-25T03:08:38.251Z,94063.00
2022-11-25T03:12:43.556Z,94067.00
2022-11-25T03:16:45.539Z,94061.00
2022-11-25T03:20:57.143Z,94060.00
2022-11-25T03:25:52.425Z,94075.00
2022-11-25T03:30:47.409Z,94077.00
2022-11-25T03:35:16.224Z,94066.00
2022-11-25T03:39:19.426Z,94069.00
2022-11-25T03:43:49.071Z,94072.00
2022-11-25T03:48:03.641Z,94086.00
2022-11-25T03:52:06.877Z,94087.00
2022-11-25T03:56:15.176Z,94088.00
2022-11-25T04:00:19.439Z,94092.00
2022-11-25T04:04:34.526Z,94093.00
2022-11-25T04:08:36.733Z,94076.00
2022-11-25T04:12:57.742Z,94086.00
2022-11-25T04:17:36.573Z,94091.00
2022-11-25T04:21:53.311Z,94083.00
2022-11-25T04:25:55.541Z,94087.00
2022-11-25T04:30:09.021Z,94083.00
2022-11-25T04:35:06.428Z,94084.00
2022-11-25T04:39:08.851Z,94086.00
2022-11-25T04:43:28.969Z,94079.00
2022-11-25T04:48:02.545Z,94098.00
2022-11-25T04:52:05.846Z,94104.00
2022-11-25T04:56:36.422Z,94111.00
2022-11-25T05:00:38.448Z,94107.00
2022-11-25T05:04:43.555Z,94108.00
2022-11-25T05:08:52.732Z,94105.00
2022-11-25T05:12:56.086Z,94093.00
2022-11-25T05:16:59.222Z,94104.00
2022-11-25T05:21:07.622Z,94100.00
2022-11-25T05:25:16.316Z,94102.00
2022-11-25T05:29:32.147Z,94109.00
2022-11-25T05:33:34.173Z,94104.00
2022-11-25T05:37:36.355Z,94101.00
2022-11-25T05:41:40.685Z,94095.00
2022-11-25T05:45:43.931Z,94088.00
2022-11-25T05:49:52.209Z,94108.00
2022-11-25T05:53:55.957Z,94108.00
2022-11-25T05:58:03.206Z,94106.00
2022-11-25T06:02:34.605Z,94109.00
2022-11-25T06:06:36.735Z,94111.00
2022-11-25T06:10:40.807Z,94117.00
2022-11-25T06:14:43.597Z,94116.00
2022-11-25T06:18:47.767Z,94114.00
2022-11-25T06:22:51.247Z,94108.00
2022-11-25T06:27:03.268Z,94116.00
2022-11-25T06:31:24.796Z,94115.00
2022-11-25T06:36:21.089Z,94124.00
2022-11-25T06:40:23.185Z,94130.00
2022-11-25T06:44:51.551Z,94124.00
2022-11-25T06:49:09.938Z,94131.00
2022-11-25T06:53:19.875Z,94125.00
2022-11-25T06:57:31.876Z,94139.00
2022-11-25T07:01:34.090Z,94140.00
2022-11-25T07:05:36.025Z,94143.00
2022-11-25T07:09:38.169Z,94141.00
2022-11-25T07:13:40.048Z,94141.00
2022-11-25T07:17:47.674Z,94150.00
2022-11-25T07:22:08.231Z,94155.00
2022-11-25T07:26:39.229Z,94149.00
2022-11-25T07:31:22.312Z,94145.00
2022-11-25T07:35:03.024Z,94152.00
2022-11-25T07:44:21.058Z,94151.00
2022-11-25T07:48:42.900Z,94143.00
2022-11-25T07:53:42.430Z,94156.00
2022-11-25T07:57:44.320Z,94166.00
2022-11-25T08:01:46.527Z,94167.00
2022-11-25T08:05:52.624Z,94169.00
2022-11-25T08:10:01.095Z,94176.00
2022-11-25T08:14:08.566Z,94173.00
2022-11-25T08:18:12.087Z,94173.00
2022-11-25T08:22:16.447Z,94167.00
2022-11-25T08:26:34.768Z,94177.00
2022-11-25T08:30:42.658Z,94179.00
2022-11-25T08:34:52.710Z,94169.00
2022-11-25T08:39:54.942Z,94172.00
2022-11-25T08:44:00.233Z,94166.00
2022-11-25T08:48:12.496Z,94169.00
2022-11-25T08:52:16.511Z,94169.00
2022-11-25T08:56:24.448Z,94176.00
2022-11-25T09:00:29.181Z,94185.00
2022-11-25T09:04:31.566Z,94187.00
2022-11-25T09:09:02.615Z,94186.00
2022-11-25T09:13:32.494Z,94185.00
2022-11-25T09:17:37.369Z,94204.00
2022-11-25T09:21:39.272Z,94202.00
2022-11-25T09:25:41.243Z,94210.00
2022-11-25T09:29:43.474Z,94215.00
2022-11-25T09:33:46.192Z,94215.00
2022-11-25T09:37:48.566Z,94205.00
2022-11-25T09:42:40.539Z,94208.00
2022-11-25T09:47:57.299Z,94206.00
2022-11-25T09:58:02.372Z,94210.00
2022-11-25T10:03:13.865Z,94203.00
2022-11-25T10:07:48.594Z,94198.00
2022-11-25T10:12:06.267Z,94189.00
2022-11-25T10:16:40.562Z,94197.00
2022-11-25T10:21:24.307Z,94198.00
2022-11-25T10:25:48.530Z,94206.00
2022-11-25T10:30:18.965Z,94203.00
2022-11-25T10:34:49.974Z,94192.00
2022-11-25T10:39:05.329Z,94178.00
2022-11-25T10:43:16.270Z,94176.00
2022-11-25T10:47:45.094Z,94188.00
2022-11-25T10:51:48.919Z,94171.00
2022-11-25T10:56:03.931Z,94181.00
2022-11-25T11:00:11.565Z,94168.00
2022-11-25T11:05:00.919Z,94158.00
2022-11-25T11:09:53.480Z,94176.00
2022-11-25T11:14:11.880Z,94158.00
2022-11-25T11:18:21.163Z,94158.00
2022-11-25T11:23:08.810Z,94148.00
2022-11-25T11:27:39.466Z,94156.00
2022-11-25T11:32:07.639Z,94157.00
2022-11-25T11:48:11.415Z,94167.00
2022-11-25T11:52:54.189Z,94167.00
2022-11-25T11:58:05.922Z,94171.00
2022-11-25T12:02:34.392Z,94168.00
2022-11-25T12:06:38.767Z,94168.00
2022-11-25T12:11:21.801Z,94169.00
2022-11-25T12:15:54.101Z,94168.00
2022-11-25T12:20:18.964Z,94170.00
2022-11-25T12:25:14.125Z,94173.00
2022-11-25T12:29:28.573Z,94178.00
2022-11-25T12:34:01.747Z,94166.00
2022-11-25T12:38:23.601Z,94166.00
2022-11-25T12:42:27.012Z,94168.00
2022-11-25T12:47:06.370Z,94167.00
2022-11-25T12:52:02.334Z,94176.00
2022-11-25T12:56:50.650Z,94166.00
2022-11-25T13:06:42.081Z,94179.00
2022-11-25T13:11:00.948Z,94176.00
2022-11-25T13:15:16.335Z,94185.00
2022-11-25T13:19:21.071Z,94190.00
2022-11-25T13:23:26.525Z,94185.00
2022-11-25T13:27:40.493Z,94187.00
2022-11-25T13:32:52.332Z,94191.00
2022-11-25T13:37:36.241Z,94190.00
2022-11-25T13:41:47.616Z,94189.00
2022-11-25T13:45:50.292Z,94190.00
2022-11-25T13:49:58.290Z,94186.00
2022-11-25T13:54:06.820Z,94188.00
2022-11-25T13:58:36.114Z,94196.00
2022-11-25T14:03:17.589Z,94197.00
2022-11-25T14:07:41.166Z,94208.00
2022-11-25T14:17:46.415Z,94211.00
2022-11-25T14:22:07.028Z,94202.00
2022-11-25T14:26:48.799Z,94209.00
2022-11-25T14:31:17.884Z,94216.00
2022-11-25T14:35:50.073Z,94222.00
2022-11-25T14:40:06.253Z,94219.00
2022-11-25T14:44:24.825Z,94213.00
2022-11-25T14:48:32.758Z,94214.00
2022-11-25T14:52:38.855Z,94215.00
2022-11-25T14:56:40.880Z,94214.00
2022-11-25T15:01:13.444Z,94214.00
2022-11-25T15:05:15.266Z,94215.00
2022-11-25T15:09:26.237Z,94222.00
2022-11-25T15:13:37.773Z,94214.00
2022-11-25T15:18:04.740Z,94226.00
2022-11-25T15:22:24.259Z,94211.00
2022-11-25T15:26:37.786Z,94225.00
2022-11-25T15:30:39.681Z,94221.00
2022-11-25T15:34:44.389Z,94220.00
2022-11-25T15:38:48.475Z,94213.00
2022-11-25T15:43:22.647Z,94221.00
2022-11-25T15:47:33.199Z,94222.00
2022-11-25T15:51:54.079Z,94230.00
2022-11-25T15:56:23.400Z,94241.00
2022-11-25T16:00:26.882Z,94237.00
2022-11-25T16:04:32.585Z,94244.00
2022-11-25T16:08:36.921Z,94246.00
2022-11-25T16:12:39.124Z,94245.00
2022-11-25T16:16:41.376Z,94251.00
2022-11-25T16:21:14.602Z,94261.00
2022-11-25T16:25:17.653Z,94262.00
2022-11-25T16:29:48.996Z,94265.00
2022-11-25T16:34:16.532Z,94261.00
2022-11-25T16:38:21.622Z,94266.00
2022-11-25T16:42:33.970Z,94269.00
2022-11-25T16:47:01.758Z,94284.00
2022-11-25T16:55:46.029Z,94274.00
2022-11-25T16:59:53.094Z,94280.00
2022-11-25T17:04:00.176Z,94277.00
2022-11-25T17:08:02.042Z,94287.00
2022-11-25T17:12:06.302Z,94286.00
2022-11-25T17:16:19.156Z,94281.00
2022-11-25T17:20:24.928Z,94292.00
2022-11-25T17:24:27.466Z,94286.00
2022-11-25T17:28:29.293Z,94308.00
2022-11-25T17:32:33.583Z,94309.00
2022-11-25T17:36:35.478Z,94309.00
2022-11-25T17:40:38.520Z,94307.00
2022-11-25T17:44:42.254Z,94305.00
2022-11-25T17:54:37.740Z,94303.00
2022-11-25T17:59:10.737Z,94315.00
2022-11-25T18:03:24.965Z,94317.00
2022-11-25T18:07:27.131Z,94321.00
2022-11-25T18:11:29.014Z,94325.00
2022-11-25T18:15:32.442Z,94324.00
2022-11-25T18:19:35.125Z,94325.00
2022-11-25T18:23:36.994Z,94338.00
2022-11-25T18:27:38.946Z,94338.00
2022-11-25T18:31:40.984Z,94341.00
2022-11-25T18:35:48.080Z,94348.00
2022-11-25T18:39:50.012Z,94355.00
2022-11-25T18:43:52.016Z,94351.00
2022-11-25T18:47:54.062Z,94350.00
2022-11-25T18:52:25.032Z,94352.00
2022-11-25T18:56:26.988Z,94355.00
2022-11-25T19:00:32.832Z,94348.00
2022-11-25T19:04:35.258Z,94358.00
2022-11-25T19:08:37.274Z,94356.00
2022-11-25T19:12:40.391Z,94353.00
2022-11-25T19:16:43.289Z,94354.00
2022-11-25T19:20:45.340Z,94368.00
2022-11-25T19:24:47.242Z,94364.00
2022-11-25T19:28:54.902Z,94374.00
2022-11-25T19:33:03.125Z,94387.00
2022-11-25T19:37:05.282Z,94377.00
2022-11-25T19:41:08.225Z,94385.00
2022-11-25T19:45:20.613Z,94389.00
2022-11-25T19:49:24.033Z,94395.00
2022-11-25T19:53:57.464Z,94409.00
2022-11-25T19:57:59.695Z,94407.00
2022-11-25T20:02:01.929Z,94404.00
2022-11-25T20:06:06.536Z,94415.00
2022-11-25T20:16:41.909Z,94409.00
2022-11-25T20:20:45.499Z,94421.00
2022-11-25T20:24:47.614Z,94427.00
2022-11-25T20:29:19.268Z,94435.00
2022-11-25T20:33:27.600Z,94433.00
2022-11-25T20:38:00.455Z,94444.00
2022-11-25T20:42:11.999Z,94439.00
2022-11-25T20:46:27.161Z,94445.00
2022-11-25T20:50:48.671Z,94447.00
2022-11-25T20:54:52.647Z,94445.00
2022-11-25T20:58:55.146Z,94448.00
2022-11-25T21:02:57.473Z,94448.00
2022-11-25T21:06:59.356Z,94458.00
2022-11-25T21:11:02.890Z,94464.00
2022-11-25T21:15:33.303Z,94470.00
2022-11-25T21:19:35.210Z,94474.00
2022-11-25T21:23:38.039Z,94469.00
2022-11-25T21:27:41.040Z,94477.00
2022-11-25T21:31:43.689Z,94479.00
2022-11-25T21:35:47.441Z,94486.00
2022-11-25T21:39:49.370Z,94495.00
2022-11-25T21:44:16.061Z,94493.00
2022-11-25T21:48:48.092Z,94496.00
2022-11-25T21:52:50.123Z,94501.00
2022-11-25T21:56:58.728Z,94502.00
2022-11-25T22:01:02.007Z,94507.00
2022-11-25T22:05:13.101Z,94508.00
2022-11-25T22:09:23.383Z,94513.00
2022-11-25T22:13:53.262Z,94526.00
2022-11-25T22:18:09.820Z,94521.00
2022-11-25T22:22:18.106Z,94525.00
2022-11-25T22:26:26.392Z,94531.00
2022-11-25T22:30:29.329Z,94541.00
2022-11-25T22:34:31.419Z,94541.00
2022-11-25T22:38:33.606Z,94549.00
2022-11-25T22:42:41.228Z,94555.00
2022-11-25T22:46:43.263Z,94557.00
2022-11-25T22:50:46.441Z,94569.00
2022-11-25T22:54:49.483Z,94582.00
2022-11-25T22:59:01.218Z,94576.00
2022-11-25T23:03:33.456Z,94580.00
2022-11-25T23:07:35.386Z,94592.00
2022-11-25T23:11:42.728Z,94592.00
2022-11-25T23:15:53.634Z,94598.00
2022-11-25T23:19:56.153Z,94603.00
2022-11-25T23:23:58.009Z,94619.00
2022-11-25T23:28:04.543Z,94612.00
2022-11-25T23:32:19.796Z,94605.00
2022-11-25T23:36:51.247Z,94611.00
2022-11-25T23:40:53.161Z,94602.00
2022-11-25T23:44:55.078Z,94609.00
2022-11-25T23:49:00.835Z,94610.00
2022-11-25T23:53:57.396Z,94621.00
2022-11-25T23:58:01.554Z,94617.00
